sensor_id;sensor_type;location;lat;lon;timestamp;temperature;humidity
85830;DHT22;76277;49.212;16.680;2024-03-06T00:00:14;3.41;100.64
85830;DHT22;76277;49.212;16.680;2024-03-06T00:02:58;3.41;100.64
85830;DHT22;76277;49.212;16.680;2024-03-06T00:05:43;3.41;100.64
85830;DHT22;76277;49.212;16.680;2024-03-06T00:08:27;3.41;100.64
85830;DHT22;76277;49.212;16.680;2024-03-06T00:11:12;3.17;100.73
85830;DHT22;76277;49.212;16.680;2024-03-06T00:13:56;3.17;100.73
85830;DHT22;76277;49.212;16.680;2024-03-06T00:16:42;3.17;100.73
85830;DHT22;76277;49.212;16.680;2024-03-06T00:19:26;3.17;100.73
85830;DHT22;76277;49.212;16.680;2024-03-06T00:22:11;3.17;100.73
85830;DHT22;76277;49.212;16.680;2024-03-06T00:24:55;3.17;100.73
85830;DHT22;76277;49.212;16.680;2024-03-06T00:27:40;3.16;101.03
85830;DHT22;76277;49.212;16.680;2024-03-06T00:30:24;3.16;101.03
85830;DHT22;76277;49.212;16.680;2024-03-06T00:33:09;3.16;101.03
85830;DHT22;76277;49.212;16.680;2024-03-06T00:35:54;3.16;101.03
85830;DHT22;76277;49.212;16.680;2024-03-06T00:38:38;3.16;101.03
85830;DHT22;76277;49.212;16.680;2024-03-06T00:41:23;3.18;100.79
85830;DHT22;76277;49.212;16.680;2024-03-06T00:44:08;3.18;100.79
85830;DHT22;76277;49.212;16.680;2024-03-06T00:46:52;3.18;100.79
85830;DHT22;76277;49.212;16.680;2024-03-06T00:49:37;3.18;100.79
85830;DHT22;76277;49.212;16.680;2024-03-06T00:52:22;3.18;100.79
85830;DHT22;76277;49.212;16.680;2024-03-06T00:55:07;2.96;100.51
85830;DHT22;76277;49.212;16.680;2024-03-06T00:57:51;2.96;100.51
85830;DHT22;76277;49.212;16.680;2024-03-06T01:00:36;2.96;100.51
85830;DHT22;76277;49.212;16.680;2024-03-06T01:03:20;2.96;100.51
85830;DHT22;76277;49.212;16.680;2024-03-06T01:06:05;2.96;100.51
85830;DHT22;76277;49.212;16.680;2024-03-06T01:08:50;2.96;100.51
85830;DHT22;76277;49.212;16.680;2024-03-06T01:11:34;2.49;100.54
85830;DHT22;76277;49.212;16.680;2024-03-06T01:14:19;2.49;100.54
85830;DHT22;76277;49.212;16.680;2024-03-06T01:17:04;2.49;100.54
85830;DHT22;76277;49.212;16.680;2024-03-06T01:19:48;2.49;100.54
85830;DHT22;76277;49.212;16.680;2024-03-06T01:22:33;2.49;100.54
85830;DHT22;76277;49.212;16.680;2024-03-06T01:25:19;2.91;100.52
85830;DHT22;76277;49.212;16.680;2024-03-06T01:28:03;2.91;100.52
85830;DHT22;76277;49.212;16.680;2024-03-06T01:30:47;2.91;100.52
85830;DHT22;76277;49.212;16.680;2024-03-06T01:33:32;2.91;100.52
85830;DHT22;76277;49.212;16.680;2024-03-06T01:36:16;2.91;100.52
85830;DHT22;76277;49.212;16.680;2024-03-06T01:39:01;2.91;100.52
85830;DHT22;76277;49.212;16.680;2024-03-06T01:41:46;2.56;100.49
85830;DHT22;76277;49.212;16.680;2024-03-06T01:47:15;2.56;100.49
85830;DHT22;76277;49.212;16.680;2024-03-06T01:50:00;2.56;100.49
85830;DHT22;76277;49.212;16.680;2024-03-06T01:52:44;2.56;100.49
85830;DHT22;76277;49.212;16.680;2024-03-06T01:55:29;2.52;100.05
85830;DHT22;76277;49.212;16.680;2024-03-06T01:58:14;2.52;100.05
85830;DHT22;76277;49.212;16.680;2024-03-06T02:00:58;2.52;100.05
85830;DHT22;76277;49.212;16.680;2024-03-06T02:03:43;2.52;100.05
85830;DHT22;76277;49.212;16.680;2024-03-06T02:06:28;2.52;100.05
85830;DHT22;76277;49.212;16.680;2024-03-06T02:09:12;2.52;100.05
85830;DHT22;76277;49.212;16.680;2024-03-06T02:11:57;2.39;98.92
85830;DHT22;76277;49.212;16.680;2024-03-06T02:14:42;2.39;98.92
85830;DHT22;76277;49.212;16.680;2024-03-06T02:17:26;2.39;98.92
85830;DHT22;76277;49.212;16.680;2024-03-06T02:20:11;2.39;98.92
85830;DHT22;76277;49.212;16.680;2024-03-06T02:22:56;2.39;98.92
85830;DHT22;76277;49.212;16.680;2024-03-06T02:25:40;2.50;98.77
85830;DHT22;76277;49.212;16.680;2024-03-06T02:28:25;2.50;98.77
85830;DHT22;76277;49.212;16.680;2024-03-06T02:31:10;2.50;98.77
85830;DHT22;76277;49.212;16.680;2024-03-06T02:33:54;2.50;98.77
85830;DHT22;76277;49.212;16.680;2024-03-06T02:36:39;2.50;98.77
85830;DHT22;76277;49.212;16.680;2024-03-06T02:39:24;2.50;98.77
85830;DHT22;76277;49.212;16.680;2024-03-06T02:42:08;2.23;98.91
85830;DHT22;76277;49.212;16.680;2024-03-06T02:44:53;2.23;98.91
85830;DHT22;76277;49.212;16.680;2024-03-06T02:47:38;2.23;98.91
85830;DHT22;76277;49.212;16.680;2024-03-06T02:50:22;2.23;98.91
85830;DHT22;76277;49.212;16.680;2024-03-06T02:53:07;2.23;98.91
85830;DHT22;76277;49.212;16.680;2024-03-06T02:55:52;2.31;99.30
85830;DHT22;76277;49.212;16.680;2024-03-06T02:58:36;2.31;99.30
85830;DHT22;76277;49.212;16.680;2024-03-06T03:01:21;2.31;99.30
85830;DHT22;76277;49.212;16.680;2024-03-06T03:04:06;2.31;99.30
85830;DHT22;76277;49.212;16.680;2024-03-06T03:06:50;2.31;99.30
85830;DHT22;76277;49.212;16.680;2024-03-06T03:09:35;2.31;99.30
85830;DHT22;76277;49.212;16.680;2024-03-06T03:12:20;2.16;99.73
85830;DHT22;76277;49.212;16.680;2024-03-06T03:15:05;2.16;99.73
85830;DHT22;76277;49.212;16.680;2024-03-06T03:17:49;2.16;99.73
85830;DHT22;76277;49.212;16.680;2024-03-06T03:20:34;2.16;99.73
85830;DHT22;76277;49.212;16.680;2024-03-06T03:23:18;2.16;99.73
85830;DHT22;76277;49.212;16.680;2024-03-06T03:26:03;2.15;99.73
85830;DHT22;76277;49.212;16.680;2024-03-06T03:28:48;2.15;99.73
85830;DHT22;76277;49.212;16.680;2024-03-06T03:31:32;2.15;99.73
85830;DHT22;76277;49.212;16.680;2024-03-06T03:34:17;2.15;99.73
85830;DHT22;76277;49.212;16.680;2024-03-06T03:37:02;2.15;99.73
85830;DHT22;76277;49.212;16.680;2024-03-06T03:39:46;2.15;99.73
85830;DHT22;76277;49.212;16.680;2024-03-06T03:42:31;1.87;100.22
85830;DHT22;76277;49.212;16.680;2024-03-06T03:45:16;1.87;100.22
85830;DHT22;76277;49.212;16.680;2024-03-06T03:48:01;1.87;100.22
85830;DHT22;76277;49.212;16.680;2024-03-06T03:50:45;1.87;100.22
85830;DHT22;76277;49.212;16.680;2024-03-06T03:53:30;1.87;100.22
85830;DHT22;76277;49.212;16.680;2024-03-06T03:56:14;1.68;99.86
85830;DHT22;76277;49.212;16.680;2024-03-06T03:58:59;1.68;99.86
85830;DHT22;76277;49.212;16.680;2024-03-06T04:01:44;1.68;99.86
85830;DHT22;76277;49.212;16.680;2024-03-06T04:04:28;1.68;99.86
85830;DHT22;76277;49.212;16.680;2024-03-06T04:07:13;1.68;99.86
85830;DHT22;76277;49.212;16.680;2024-03-06T04:09:58;1.68;99.86
85830;DHT22;76277;49.212;16.680;2024-03-06T04:12:42;1.28;99.85
85830;DHT22;76277;49.212;16.680;2024-03-06T04:15:27;1.28;99.85
85830;DHT22;76277;49.212;16.680;2024-03-06T04:18:12;1.28;99.85
85830;DHT22;76277;49.212;16.680;2024-03-06T04:20:56;1.28;99.85
85830;DHT22;76277;49.212;16.680;2024-03-06T04:23:41;1.28;99.85
85830;DHT22;76277;49.212;16.680;2024-03-06T04:26:26;1.65;100.22
85830;DHT22;76277;49.212;16.680;2024-03-06T04:31:55;1.65;100.22
85830;DHT22;76277;49.212;16.680;2024-03-06T04:34:40;1.65;100.22
85830;DHT22;76277;49.212;16.680;2024-03-06T04:37:24;1.65;100.22
85830;DHT22;76277;49.212;16.680;2024-03-06T04:40:09;1.65;100.22
85830;DHT22;76277;49.212;16.680;2024-03-06T04:42:53;1.38;99.95
85830;DHT22;76277;49.212;16.680;2024-03-06T04:45:38;1.38;99.95
85830;DHT22;76277;49.212;16.680;2024-03-06T04:48:23;1.38;99.95
85830;DHT22;76277;49.212;16.680;2024-03-06T04:51:07;1.38;99.95
85830;DHT22;76277;49.212;16.680;2024-03-06T04:53:52;1.38;99.95
85830;DHT22;76277;49.212;16.680;2024-03-06T04:56:37;1.59;100.10
85830;DHT22;76277;49.212;16.680;2024-03-06T04:59:21;1.59;100.10
85830;DHT22;76277;49.212;16.680;2024-03-06T05:02:06;1.59;100.10
85830;DHT22;76277;49.212;16.680;2024-03-06T05:04:51;1.59;100.10
85830;DHT22;76277;49.212;16.680;2024-03-06T05:07:36;1.59;100.10
85830;DHT22;76277;49.212;16.680;2024-03-06T05:10:20;1.59;100.10
85830;DHT22;76277;49.212;16.680;2024-03-06T05:13:05;1.91;99.13
85830;DHT22;76277;49.212;16.680;2024-03-06T05:15:50;1.91;99.13
85830;DHT22;76277;49.212;16.680;2024-03-06T05:18:34;1.91;99.13
85830;DHT22;76277;49.212;16.680;2024-03-06T05:21:19;1.91;99.13
85830;DHT22;76277;49.212;16.680;2024-03-06T05:24:04;1.91;99.13
85830;DHT22;76277;49.212;16.680;2024-03-06T05:26:48;1.55;98.96
85830;DHT22;76277;49.212;16.680;2024-03-06T05:29:33;1.55;98.96
85830;DHT22;76277;49.212;16.680;2024-03-06T05:32:17;1.55;98.96
85830;DHT22;76277;49.212;16.680;2024-03-06T05:35:02;1.55;98.96
85830;DHT22;76277;49.212;16.680;2024-03-06T05:37:47;1.55;98.96
85830;DHT22;76277;49.212;16.680;2024-03-06T05:40:32;1.55;98.96
85830;DHT22;76277;49.212;16.680;2024-03-06T05:43:16;1.41;98.56
85830;DHT22;76277;49.212;16.680;2024-03-06T05:46:01;1.41;98.56
85830;DHT22;76277;49.212;16.680;2024-03-06T05:48:45;1.41;98.56
85830;DHT22;76277;49.212;16.680;2024-03-06T05:51:30;1.41;98.56
85830;DHT22;76277;49.212;16.680;2024-03-06T05:54:15;1.41;98.56
85830;DHT22;76277;49.212;16.680;2024-03-06T05:57:00;1.52;98.40
85830;DHT22;76277;49.212;16.680;2024-03-06T05:59:45;1.52;98.40
85830;DHT22;76277;49.212;16.680;2024-03-06T06:02:29;1.52;98.40
85830;DHT22;76277;49.212;16.680;2024-03-06T06:05:14;1.52;98.40
85830;DHT22;76277;49.212;16.680;2024-03-06T06:07:58;1.52;98.40
85830;DHT22;76277;49.212;16.680;2024-03-06T06:10:43;1.52;98.40
85830;DHT22;76277;49.212;16.680;2024-03-06T06:13:28;1.90;97.06
85830;DHT22;76277;49.212;16.680;2024-03-06T06:16:12;1.90;97.06
85830;DHT22;76277;49.212;16.680;2024-03-06T06:18:57;1.90;97.06
85830;DHT22;76277;49.212;16.680;2024-03-06T06:21:41;1.90;97.06
85830;DHT22;76277;49.212;16.680;2024-03-06T06:24:26;1.90;97.06
85830;DHT22;76277;49.212;16.680;2024-03-06T06:27:11;2.19;96.67
85830;DHT22;76277;49.212;16.680;2024-03-06T06:29:55;2.19;96.67
85830;DHT22;76277;49.212;16.680;2024-03-06T06:32:40;2.19;96.67
85830;DHT22;76277;49.212;16.680;2024-03-06T06:35:25;2.19;96.67
85830;DHT22;76277;49.212;16.680;2024-03-06T06:38:10;2.19;96.67
85830;DHT22;76277;49.212;16.680;2024-03-06T06:40:55;2.19;96.67
85830;DHT22;76277;49.212;16.680;2024-03-06T06:43:39;2.35;95.89
85830;DHT22;76277;49.212;16.680;2024-03-06T06:46:23;2.35;95.89
85830;DHT22;76277;49.212;16.680;2024-03-06T06:49:08;2.35;95.89
85830;DHT22;76277;49.212;16.680;2024-03-06T06:51:53;2.35;95.89
85830;DHT22;76277;49.212;16.680;2024-03-06T06:54:38;2.35;95.89
85830;DHT22;76277;49.212;16.680;2024-03-06T06:57:22;3.09;94.68
85830;DHT22;76277;49.212;16.680;2024-03-06T07:02:51;3.09;94.68
85830;DHT22;76277;49.212;16.680;2024-03-06T07:05:36;3.09;94.68
85830;DHT22;76277;49.212;16.680;2024-03-06T07:08:21;3.09;94.68
85830;DHT22;76277;49.212;16.680;2024-03-06T07:11:05;3.09;94.68
85830;DHT22;76277;49.212;16.680;2024-03-06T07:13:50;4.49;91.05
85830;DHT22;76277;49.212;16.680;2024-03-06T07:16:35;4.49;91.05
85830;DHT22;76277;49.212;16.680;2024-03-06T07:19:20;4.49;91.05
85830;DHT22;76277;49.212;16.680;2024-03-06T07:22:04;4.49;91.05
85830;DHT22;76277;49.212;16.680;2024-03-06T07:24:49;4.49;91.05
85830;DHT22;76277;49.212;16.680;2024-03-06T07:27:33;6.07;84.76
85830;DHT22;76277;49.212;16.680;2024-03-06T07:30:19;6.07;84.76
85830;DHT22;76277;49.212;16.680;2024-03-06T07:33:03;6.07;84.76
85830;DHT22;76277;49.212;16.680;2024-03-06T07:35:47;6.07;84.76
85830;DHT22;76277;49.212;16.680;2024-03-06T07:38:32;6.07;84.76
85830;DHT22;76277;49.212;16.680;2024-03-06T07:41:17;6.07;84.76
85830;DHT22;76277;49.212;16.680;2024-03-06T07:44:01;7.12;80.21
85830;DHT22;76277;49.212;16.680;2024-03-06T07:46:46;7.12;80.21
85830;DHT22;76277;49.212;16.680;2024-03-06T07:49:31;7.12;80.21
85830;DHT22;76277;49.212;16.680;2024-03-06T07:52:15;7.12;80.21
85830;DHT22;76277;49.212;16.680;2024-03-06T07:55:00;7.12;80.21
85830;DHT22;76277;49.212;16.680;2024-03-06T07:57:45;8.57;75.69
85830;DHT22;76277;49.212;16.680;2024-03-06T08:00:29;8.57;75.69
85830;DHT22;76277;49.212;16.680;2024-03-06T08:03:14;8.57;75.69
85830;DHT22;76277;49.212;16.680;2024-03-06T08:05:59;8.57;75.69
85830;DHT22;76277;49.212;16.680;2024-03-06T08:08:43;8.57;75.69
85830;DHT22;76277;49.212;16.680;2024-03-06T08:11:28;8.57;75.69
85830;DHT22;76277;49.212;16.680;2024-03-06T08:14:13;8.91;73.01
85830;DHT22;76277;49.212;16.680;2024-03-06T08:16:57;8.91;73.01
85830;DHT22;76277;49.212;16.680;2024-03-06T08:19:42;8.91;73.01
85830;DHT22;76277;49.212;16.680;2024-03-06T08:22:27;8.91;73.01
85830;DHT22;76277;49.212;16.680;2024-03-06T08:25:12;8.91;73.01
85830;DHT22;76277;49.212;16.680;2024-03-06T08:27:56;6.73;77.23
85830;DHT22;76277;49.212;16.680;2024-03-06T08:30:41;6.73;77.23
85830;DHT22;76277;49.212;16.680;2024-03-06T08:33:25;6.73;77.23
85830;DHT22;76277;49.212;16.680;2024-03-06T08:36:10;6.73;77.23
85830;DHT22;76277;49.212;16.680;2024-03-06T08:38:55;6.73;77.23
85830;DHT22;76277;49.212;16.680;2024-03-06T08:41:40;6.73;77.23
85830;DHT22;76277;49.212;16.680;2024-03-06T08:44:24;8.22;74.68
85830;DHT22;76277;49.212;16.680;2024-03-06T08:47:09;8.22;74.68
85830;DHT22;76277;49.212;16.680;2024-03-06T08:49:53;8.22;74.68
85830;DHT22;76277;49.212;16.680;2024-03-06T08:52:39;8.22;74.68
85830;DHT22;76277;49.212;16.680;2024-03-06T08:55:23;8.22;74.68
85830;DHT22;76277;49.212;16.680;2024-03-06T08:58:07;10.00;66.10
85830;DHT22;76277;49.212;16.680;2024-03-06T09:00:52;10.00;66.10
85830;DHT22;76277;49.212;16.680;2024-03-06T09:03:37;10.00;66.10
85830;DHT22;76277;49.212;16.680;2024-03-06T09:06:21;10.00;66.10
85830;DHT22;76277;49.212;16.680;2024-03-06T09:09:06;10.00;66.10
85830;DHT22;76277;49.212;16.680;2024-03-06T09:11:51;10.00;66.10
85830;DHT22;76277;49.212;16.680;2024-03-06T09:14:36;10.37;63.99
85830;DHT22;76277;49.212;16.680;2024-03-06T09:17:20;10.37;63.99
85830;DHT22;76277;49.212;16.680;2024-03-06T09:20:05;10.37;63.99
85830;DHT22;76277;49.212;16.680;2024-03-06T09:22:49;10.37;63.99
85830;DHT22;76277;49.212;16.680;2024-03-06T09:25:34;10.37;63.99
85830;DHT22;76277;49.212;16.680;2024-03-06T09:28:19;9.73;63.82
85830;DHT22;76277;49.212;16.680;2024-03-06T09:31:04;9.73;63.82
85830;DHT22;76277;49.212;16.680;2024-03-06T09:33:48;9.73;63.82
85830;DHT22;76277;49.212;16.680;2024-03-06T09:36:33;9.73;63.82
85830;DHT22;76277;49.212;16.680;2024-03-06T09:39:18;9.73;63.82
85830;DHT22;76277;49.212;16.680;2024-03-06T09:42:02;11.08;59.99
85830;DHT22;76277;49.212;16.680;2024-03-06T09:44:47;11.08;59.99
85830;DHT22;76277;49.212;16.680;2024-03-06T09:47:32;11.08;59.99
85830;DHT22;76277;49.212;16.680;2024-03-06T09:50:16;11.08;59.99
85830;DHT22;76277;49.212;16.680;2024-03-06T09:53:01;11.08;59.99
85830;DHT22;76277;49.212;16.680;2024-03-06T09:55:45;11.08;59.99
85830;DHT22;76277;49.212;16.680;2024-03-06T09:58:30;10.74;61.38
85830;DHT22;76277;49.212;16.680;2024-03-06T10:01:15;10.74;61.38
85830;DHT22;76277;49.212;16.680;2024-03-06T10:04:00;10.74;61.38
85830;DHT22;76277;49.212;16.680;2024-03-06T10:06:44;10.74;61.38
85830;DHT22;76277;49.212;16.680;2024-03-06T10:09:29;10.74;61.38
85830;DHT22;76277;49.212;16.680;2024-03-06T10:12:16;11.33;56.40
85830;DHT22;76277;49.212;16.680;2024-03-06T10:14:58;11.33;56.40
85830;DHT22;76277;49.212;16.680;2024-03-06T10:17:42;11.33;56.40
85830;DHT22;76277;49.212;16.680;2024-03-06T10:20:27;11.33;56.40
85830;DHT22;76277;49.212;16.680;2024-03-06T10:23:12;11.33;56.40
85830;DHT22;76277;49.212;16.680;2024-03-06T10:25:56;11.33;56.40
85830;DHT22;76277;49.212;16.680;2024-03-06T10:28:44;14.65;50.22
85830;DHT22;76277;49.212;16.680;2024-03-06T10:31:26;14.65;50.22
85830;DHT22;76277;49.212;16.680;2024-03-06T10:34:10;14.65;50.22
85830;DHT22;76277;49.212;16.680;2024-03-06T10:36:56;14.65;50.22
85830;DHT22;76277;49.212;16.680;2024-03-06T10:39:41;14.65;50.22
85830;DHT22;76277;49.212;16.680;2024-03-06T10:42:24;13.57;50.54
85830;DHT22;76277;49.212;16.680;2024-03-06T10:45:10;13.57;50.54
85830;DHT22;76277;49.212;16.680;2024-03-06T10:50:39;13.57;50.54
85830;DHT22;76277;49.212;16.680;2024-03-06T10:53:23;13.57;50.54
85830;DHT22;76277;49.212;16.680;2024-03-06T10:56:08;13.57;50.54
85830;DHT22;76277;49.212;16.680;2024-03-06T10:58:52;15.28;46.21
85830;DHT22;76277;49.212;16.680;2024-03-06T11:01:37;15.28;46.21
85830;DHT22;76277;49.212;16.680;2024-03-06T11:04:23;15.28;46.21
85830;DHT22;76277;49.212;16.680;2024-03-06T11:07:07;15.28;46.21
85830;DHT22;76277;49.212;16.680;2024-03-06T11:09:51;15.28;46.21
85830;DHT22;76277;49.212;16.680;2024-03-06T11:12:36;16.86;43.66
85830;DHT22;76277;49.212;16.680;2024-03-06T11:15:20;16.86;43.66
85830;DHT22;76277;49.212;16.680;2024-03-06T11:20:50;16.86;43.66
85830;DHT22;76277;49.212;16.680;2024-03-06T11:23:35;16.86;43.66
85830;DHT22;76277;49.212;16.680;2024-03-06T11:26:19;16.86;43.66
85830;DHT22;76277;49.212;16.680;2024-03-06T11:29:04;16.35;44.02
85830;DHT22;76277;49.212;16.680;2024-03-06T11:34:34;16.35;44.02
85830;DHT22;76277;49.212;16.680;2024-03-06T11:37:20;16.35;44.02
85830;DHT22;76277;49.212;16.680;2024-03-06T11:40:03;16.35;44.02
85830;DHT22;76277;49.212;16.680;2024-03-06T11:42:47;15.71;44.74
85830;DHT22;76277;49.212;16.680;2024-03-06T11:45:32;15.71;44.74
85830;DHT22;76277;49.212;16.680;2024-03-06T11:48:17;15.71;44.74
85830;DHT22;76277;49.212;16.680;2024-03-06T11:51:01;15.71;44.74
85830;DHT22;76277;49.212;16.680;2024-03-06T11:53:46;15.71;44.74
85830;DHT22;76277;49.212;16.680;2024-03-06T11:56:31;15.71;44.74
85830;DHT22;76277;49.212;16.680;2024-03-06T11:59:15;13.56;50.54
85830;DHT22;76277;49.212;16.680;2024-03-06T12:02:00;13.56;50.54
85830;DHT22;76277;49.212;16.680;2024-03-06T12:04:45;13.56;50.54
85830;DHT22;76277;49.212;16.680;2024-03-06T12:07:29;13.56;50.54
85830;DHT22;76277;49.212;16.680;2024-03-06T12:10:15;13.56;50.54
85830;DHT22;76277;49.212;16.680;2024-03-06T12:12:59;14.16;46.44
85830;DHT22;76277;49.212;16.680;2024-03-06T12:15:43;14.16;46.44
85830;DHT22;76277;49.212;16.680;2024-03-06T12:18:28;14.16;46.44
85830;DHT22;76277;49.212;16.680;2024-03-06T12:21:14;14.16;46.44
85830;DHT22;76277;49.212;16.680;2024-03-06T12:24:05;14.16;46.44
85830;DHT22;76277;49.212;16.680;2024-03-06T12:26:42;14.16;46.44
85830;DHT22;76277;49.212;16.680;2024-03-06T12:29:28;34.72;20.42
85830;DHT22;76277;49.212;16.680;2024-03-06T12:32:19;34.72;20.42
85830;DHT22;76277;49.212;16.680;2024-03-06T12:34:56;34.72;20.42
85830;DHT22;76277;49.212;16.680;2024-03-06T12:37:40;34.72;20.42
85830;DHT22;76277;49.212;16.680;2024-03-06T12:40:25;34.72;20.42
85830;DHT22;76277;49.212;16.680;2024-03-06T12:43:10;39.94;17.40
85830;DHT22;76277;49.212;16.680;2024-03-06T12:45:54;39.94;17.40
85830;DHT22;76277;49.212;16.680;2024-03-06T12:48:39;39.94;17.40
85830;DHT22;76277;49.212;16.680;2024-03-06T12:51:24;39.94;17.40
85830;DHT22;76277;49.212;16.680;2024-03-06T12:54:08;39.94;17.40
85830;DHT22;76277;49.212;16.680;2024-03-06T12:56:53;39.94;17.40
85830;DHT22;76277;49.212;16.680;2024-03-06T12:59:38;40.63;17.19
85830;DHT22;76277;49.212;16.680;2024-03-06T13:02:22;40.63;17.19
85830;DHT22;76277;49.212;16.680;2024-03-06T13:07:52;40.63;17.19
85830;DHT22;76277;49.212;16.680;2024-03-06T13:10:36;40.63;17.19
85830;DHT22;76277;49.212;16.680;2024-03-06T13:13:21;31.28;22.05
85830;DHT22;76277;49.212;16.680;2024-03-06T13:16:06;31.28;22.05
85830;DHT22;76277;49.212;16.680;2024-03-06T13:18:50;31.28;22.05
85830;DHT22;76277;49.212;16.680;2024-03-06T13:21:35;31.28;22.05
85830;DHT22;76277;49.212;16.680;2024-03-06T13:24:20;31.28;22.05
85830;DHT22;76277;49.212;16.680;2024-03-06T13:27:05;31.28;22.05
85830;DHT22;76277;49.212;16.680;2024-03-06T13:29:49;19.84;32.79
85830;DHT22;76277;49.212;16.680;2024-03-06T13:32:34;19.84;32.79
85830;DHT22;76277;49.212;16.680;2024-03-06T13:35:18;19.84;32.79
85830;DHT22;76277;49.212;16.680;2024-03-06T13:38:03;19.84;32.79
85830;DHT22;76277;49.212;16.680;2024-03-06T13:40:48;19.84;32.79
85830;DHT22;76277;49.212;16.680;2024-03-06T13:43:32;22.41;30.30
85830;DHT22;76277;49.212;16.680;2024-03-06T13:46:17;22.41;30.30
85830;DHT22;76277;49.212;16.680;2024-03-06T13:49:02;22.41;30.30
85830;DHT22;76277;49.212;16.680;2024-03-06T13:51:46;22.41;30.30
85830;DHT22;76277;49.212;16.680;2024-03-06T13:54:31;22.41;30.30
85830;DHT22;76277;49.212;16.680;2024-03-06T13:57:16;22.41;30.30
85830;DHT22;76277;49.212;16.680;2024-03-06T14:00:01;20.11;32.07
85830;DHT22;76277;49.212;16.680;2024-03-06T14:02:45;20.11;32.07
85830;DHT22;76277;49.212;16.680;2024-03-06T14:05:30;20.11;32.07
85830;DHT22;76277;49.212;16.680;2024-03-06T14:08:14;20.11;32.07
85830;DHT22;76277;49.212;16.680;2024-03-06T14:10:59;20.11;32.07
85830;DHT22;76277;49.212;16.680;2024-03-06T14:13:44;32.24;21.06
85830;DHT22;76277;49.212;16.680;2024-03-06T14:16:28;32.24;21.06
85830;DHT22;76277;49.212;16.680;2024-03-06T14:19:13;32.24;21.06
85830;DHT22;76277;49.212;16.680;2024-03-06T14:21:58;32.24;21.06
85830;DHT22;76277;49.212;16.680;2024-03-06T14:24:46;32.24;21.06
85830;DHT22;76277;49.212;16.680;2024-03-06T14:27:27;32.24;21.06
85830;DHT22;76277;49.212;16.680;2024-03-06T14:30:13;26.45;24.60
85830;DHT22;76277;49.212;16.680;2024-03-06T14:32:56;26.45;24.60
85830;DHT22;76277;49.212;16.680;2024-03-06T14:35:41;26.45;24.60
85830;DHT22;76277;49.212;16.680;2024-03-06T14:38:27;26.45;24.60
85830;DHT22;76277;49.212;16.680;2024-03-06T14:41:10;26.45;24.60
85830;DHT22;76277;49.212;16.680;2024-03-06T14:43:55;26.48;25.39
85830;DHT22;76277;49.212;16.680;2024-03-06T14:46:40;26.48;25.39
85830;DHT22;76277;49.212;16.680;2024-03-06T14:49:24;26.48;25.39
85830;DHT22;76277;49.212;16.680;2024-03-06T14:52:09;26.48;25.39
85830;DHT22;76277;49.212;16.680;2024-03-06T14:54:54;26.48;25.39
85830;DHT22;76277;49.212;16.680;2024-03-06T14:57:38;26.48;25.39
85830;DHT22;76277;49.212;16.680;2024-03-06T15:00:23;15.67;38.34
85830;DHT22;76277;49.212;16.680;2024-03-06T15:03:08;15.67;38.34
85830;DHT22;76277;49.212;16.680;2024-03-06T15:05:52;15.67;38.34
85830;DHT22;76277;49.212;16.680;2024-03-06T15:08:37;15.67;38.34
85830;DHT22;76277;49.212;16.680;2024-03-06T15:11:22;15.67;38.34
85830;DHT22;76277;49.212;16.680;2024-03-06T15:14:07;27.62;23.75
85830;DHT22;76277;49.212;16.680;2024-03-06T15:16:51;27.62;23.75
85830;DHT22;76277;49.212;16.680;2024-03-06T15:19:35;27.62;23.75
85830;DHT22;76277;49.212;16.680;2024-03-06T15:22:20;27.62;23.75
85830;DHT22;76277;49.212;16.680;2024-03-06T15:25:05;27.62;23.75
85830;DHT22;76277;49.212;16.680;2024-03-06T15:27:50;27.62;23.75
85830;DHT22;76277;49.212;16.680;2024-03-06T15:30:34;17.42;36.93
85830;DHT22;76277;49.212;16.680;2024-03-06T15:33:19;17.42;36.93
85830;DHT22;76277;49.212;16.680;2024-03-06T15:36:04;17.42;36.93
85830;DHT22;76277;49.212;16.680;2024-03-06T15:38:48;17.42;36.93
85830;DHT22;76277;49.212;16.680;2024-03-06T15:41:33;17.42;36.93
85830;DHT22;76277;49.212;16.680;2024-03-06T15:44:17;15.48;39.57
85830;DHT22;76277;49.212;16.680;2024-03-06T15:47:02;15.48;39.57
85830;DHT22;76277;49.212;16.680;2024-03-06T15:49:47;15.48;39.57
85830;DHT22;76277;49.212;16.680;2024-03-06T15:52:31;15.48;39.57
85830;DHT22;76277;49.212;16.680;2024-03-06T15:55:16;15.48;39.57
85830;DHT22;76277;49.212;16.680;2024-03-06T15:58:01;15.48;39.57
85830;DHT22;76277;49.212;16.680;2024-03-06T16:00:45;15.01;40.33
85830;DHT22;76277;49.212;16.680;2024-03-06T16:03:30;15.01;40.33
85830;DHT22;76277;49.212;16.680;2024-03-06T16:06:15;15.01;40.33
85830;DHT22;76277;49.212;16.680;2024-03-06T16:08:59;15.01;40.33
85830;DHT22;76277;49.212;16.680;2024-03-06T16:11:44;15.01;40.33
85830;DHT22;76277;49.212;16.680;2024-03-06T16:14:29;14.55;42.11
85830;DHT22;76277;49.212;16.680;2024-03-06T16:17:13;14.55;42.11
85830;DHT22;76277;49.212;16.680;2024-03-06T16:19:58;14.55;42.11
85830;DHT22;76277;49.212;16.680;2024-03-06T16:22:43;14.55;42.11
85830;DHT22;76277;49.212;16.680;2024-03-06T16:25:27;14.55;42.11
85830;DHT22;76277;49.212;16.680;2024-03-06T16:28:12;14.55;42.11
85830;DHT22;76277;49.212;16.680;2024-03-06T16:30:57;11.97;48.11
85830;DHT22;76277;49.212;16.680;2024-03-06T16:33:41;11.97;48.11
85830;DHT22;76277;49.212;16.680;2024-03-06T16:36:26;11.97;48.11
85830;DHT22;76277;49.212;16.680;2024-03-06T16:39:11;11.97;48.11
85830;DHT22;76277;49.212;16.680;2024-03-06T16:41:55;11.97;48.11
85830;DHT22;76277;49.212;16.680;2024-03-06T16:44:40;8.35;57.44
85830;DHT22;76277;49.212;16.680;2024-03-06T16:47:25;8.35;57.44
85830;DHT22;76277;49.212;16.680;2024-03-06T16:50:09;8.35;57.44
85830;DHT22;76277;49.212;16.680;2024-03-06T16:52:54;8.35;57.44
85830;DHT22;76277;49.212;16.680;2024-03-06T16:55:39;8.35;57.44
85830;DHT22;76277;49.212;16.680;2024-03-06T16:58:24;8.35;57.44
85830;DHT22;76277;49.212;16.680;2024-03-06T17:01:08;7.77;61.08
85830;DHT22;76277;49.212;16.680;2024-03-06T17:03:53;7.77;61.08
85830;DHT22;76277;49.212;16.680;2024-03-06T17:06:37;7.77;61.08
85830;DHT22;76277;49.212;16.680;2024-03-06T17:09:22;7.77;61.08
85830;DHT22;76277;49.212;16.680;2024-03-06T17:12:07;7.77;61.08
85830;DHT22;76277;49.212;16.680;2024-03-06T17:14:51;7.63;63.49
85830;DHT22;76277;49.212;16.680;2024-03-06T17:17:36;7.63;63.49
85830;DHT22;76277;49.212;16.680;2024-03-06T17:20:21;7.63;63.49
85830;DHT22;76277;49.212;16.680;2024-03-06T17:23:05;7.63;63.49
85830;DHT22;76277;49.212;16.680;2024-03-06T17:25:50;7.63;63.49
85830;DHT22;76277;49.212;16.680;2024-03-06T17:28:35;7.63;63.49